sensor_id;sensor_type;location;lat;lon;timestamp;P1;durP1;ratioP1;P2;durP2;ratioP2
70332;SDS011;57747;43.548;-5.704;2023-02-15T00:01:53;9.75;;;3.63;;
70332;SDS011;57747;43.548;-5.704;2023-02-15T00:04:20;9.75;;;3.22;;
70332;SDS011;57747;43.548;-5.704;2023-02-15T00:06:47;18.23;;;3.83;;
70332;SDS011;57747;43.548;-5.704;2023-02-15T00:09:12;23.80;;;3.20;;
70332;SDS011;57747;43.548;-5.704;2023-02-15T00:11:39;17.75;;;4.05;;
70332;SDS011;57747;43.548;-5.704;2023-02-15T00:16:59;14.63;;;3.65;;
70332;SDS011;57747;43.548;-5.704;2023-02-15T00:19:25;25.55;;;3.85;;
70332;SDS011;57747;43.548;-5.704;2023-02-15T00:21:50;14.80;;;3.17;;
70332;SDS011;57747;43.548;-5.704;2023-02-15T00:24:16;17.73;;;3.65;;
70332;SDS011;57747;43.548;-5.704;2023-02-15T00:26:44;11.15;;;3.10;;
70332;SDS011;57747;43.548;-5.704;2023-02-15T00:29:11;8.77;;;2.80;;
70332;SDS011;57747;43.548;-5.704;2023-02-15T00:31:37;14.93;;;3.75;;
70332;SDS011;57747;43.548;-5.704;2023-02-15T00:34:06;9.88;;;2.95;;
70332;SDS011;57747;43.548;-5.704;2023-02-15T00:36:34;21.73;;;3.55;;
70332;SDS011;57747;43.548;-5.704;2023-02-15T00:39:02;14.75;;;3.53;;
70332;SDS011;57747;43.548;-5.704;2023-02-15T00:41:30;21.35;;;3.90;;
70332;SDS011;57747;43.548;-5.704;2023-02-15T00:43:56;22.73;;;4.03;;
70332;SDS011;57747;43.548;-5.704;2023-02-15T00:46:22;16.73;;;4.63;;
70332;SDS011;57747;43.548;-5.704;2023-02-15T00:48:47;11.18;;;3.55;;
70332;SDS011;57747;43.548;-5.704;2023-02-15T00:51:13;24.08;;;4.10;;
70332;SDS011;57747;43.548;-5.704;2023-02-15T00:53:38;20.70;;;3.95;;
70332;SDS011;57747;43.548;-5.704;2023-02-15T00:56:04;18.25;;;4.07;;
70332;SDS011;57747;43.548;-5.704;2023-02-15T00:58:29;18.75;;;3.45;;
70332;SDS011;57747;43.548;-5.704;2023-02-15T01:01:01;8.32;;;3.05;;
70332;SDS011;57747;43.548;-5.704;2023-02-15T01:03:27;11.37;;;3.40;;
70332;SDS011;57747;43.548;-5.704;2023-02-15T01:05:52;17.95;;;3.88;;
70332;SDS011;57747;43.548;-5.704;2023-02-15T01:08:18;15.45;;;3.42;;
70332;SDS011;57747;43.548;-5.704;2023-02-15T01:10:43;5.50;;;2.95;;
70332;SDS011;57747;43.548;-5.704;2023-02-15T01:13:10;15.32;;;2.75;;
70332;SDS011;57747;43.548;-5.704;2023-02-15T01:15:36;8.95;;;3.10;;
70332;SDS011;57747;43.548;-5.704;2023-02-15T01:18:01;10.68;;;3.85;;
70332;SDS011;57747;43.548;-5.704;2023-02-15T01:20:27;19.33;;;4.40;;
70332;SDS011;57747;43.548;-5.704;2023-02-15T01:22:53;12.05;;;3.88;;
70332;SDS011;57747;43.548;-5.704;2023-02-15T01:25:19;12.63;;;3.38;;
70332;SDS011;57747;43.548;-5.704;2023-02-15T01:27:45;21.83;;;3.63;;
70332;SDS011;57747;43.548;-5.704;2023-02-15T01:30:11;14.77;;;3.50;;
70332;SDS011;57747;43.548;-5.704;2023-02-15T01:32:37;10.10;;;3.53;;
70332;SDS011;57747;43.548;-5.704;2023-02-15T01:35:03;14.00;;;3.63;;
70332;SDS011;57747;43.548;-5.704;2023-02-15T01:37:30;10.52;;;3.58;;
70332;SDS011;57747;43.548;-5.704;2023-02-15T01:39:55;6.47;;;2.40;;
70332;SDS011;57747;43.548;-5.704;2023-02-15T01:42:21;8.48;;;2.92;;
70332;SDS011;57747;43.548;-5.704;2023-02-15T01:44:55;6.13;;;2.72;;
70332;SDS011;57747;43.548;-5.704;2023-02-15T01:52:42;11.90;;;2.85;;
70332;SDS011;57747;43.548;-5.704;2023-02-15T01:55:08;5.85;;;2.28;;
70332;SDS011;57747;43.548;-5.704;2023-02-15T01:57:37;18.13;;;3.42;;
70332;SDS011;57747;43.548;-5.704;2023-02-15T02:00:03;21.13;;;3.60;;
70332;SDS011;57747;43.548;-5.704;2023-02-15T02:02:29;12.13;;;3.03;;
70332;SDS011;57747;43.548;-5.704;2023-02-15T02:04:59;18.55;;;3.97;;
70332;SDS011;57747;43.548;-5.704;2023-02-15T02:07:28;16.58;;;2.85;;
70332;SDS011;57747;43.548;-5.704;2023-02-15T02:09:56;16.60;;;3.20;;
70332;SDS011;57747;43.548;-5.704;2023-02-15T02:12:21;12.20;;;2.95;;
70332;SDS011;57747;43.548;-5.704;2023-02-15T02:14:47;8.63;;;3.05;;
70332;SDS011;57747;43.548;-5.704;2023-02-15T02:34:54;20.17;;;2.30;;
70332;SDS011;57747;43.548;-5.704;2023-02-15T02:37:27;15.88;;;2.70;;
70332;SDS011;57747;43.548;-5.704;2023-02-15T02:45:05;18.38;;;2.42;;
70332;SDS011;57747;43.548;-5.704;2023-02-15T02:47:47;7.53;;;2.40;;
70332;SDS011;57747;43.548;-5.704;2023-02-15T02:50:24;16.80;;;2.20;;
70332;SDS011;57747;43.548;-5.704;2023-02-15T02:52:53;17.02;;;2.88;;
70332;SDS011;57747;43.548;-5.704;2023-02-15T02:55:23;5.82;;;2.53;;
70332;SDS011;57747;43.548;-5.704;2023-02-15T03:02:54;9.52;;;2.95;;
70332;SDS011;57747;43.548;-5.704;2023-02-15T03:05:24;7.68;;;1.77;;
70332;SDS011;57747;43.548;-5.704;2023-02-15T03:07:51;5.28;;;2.17;;
70332;SDS011;57747;43.548;-5.704;2023-02-15T03:10:22;13.15;;;2.28;;
70332;SDS011;57747;43.548;-5.704;2023-02-15T03:12:48;5.22;;;1.70;;
70332;SDS011;57747;43.548;-5.704;2023-02-15T03:15:16;3.35;;;1.75;;
70332;SDS011;57747;43.548;-5.704;2023-02-15T03:17:44;3.42;;;1.85;;
70332;SDS011;57747;43.548;-5.704;2023-02-15T03:20:43;6.63;;;1.70;;
70332;SDS011;57747;43.548;-5.704;2023-02-15T03:23:03;5.00;;;1.95;;
70332;SDS011;57747;43.548;-5.704;2023-02-15T03:28:02;4.90;;;2.05;;
70332;SDS011;57747;43.548;-5.704;2023-02-15T03:30:28;8.38;;;2.15;;
70332;SDS011;57747;43.548;-5.704;2023-02-15T03:32:54;3.45;;;1.90;;
70332;SDS011;57747;43.548;-5.704;2023-02-15T03:35:22;4.32;;;1.77;;
70332;SDS011;57747;43.548;-5.704;2023-02-15T03:38:08;4.88;;;1.63;;
70332;SDS011;57747;43.548;-5.704;2023-02-15T03:40:37;4.25;;;1.95;;
70332;SDS011;57747;43.548;-5.704;2023-02-15T03:45:51;3.67;;;1.45;;
70332;SDS011;57747;43.548;-5.704;2023-02-15T03:48:33;4.50;;;1.65;;
70332;SDS011;57747;43.548;-5.704;2023-02-15T03:51:02;2.95;;;1.40;;
70332;SDS011;57747;43.548;-5.704;2023-02-15T03:53:47;3.28;;;1.60;;
70332;SDS011;57747;43.548;-5.704;2023-02-15T03:56:13;6.13;;;1.75;;
70332;SDS011;57747;43.548;-5.704;2023-02-15T03:58:38;12.00;;;2.42;;
70332;SDS011;57747;43.548;-5.704;2023-02-15T04:01:27;6.63;;;2.10;;
70332;SDS011;57747;43.548;-5.704;2023-02-15T04:04:23;21.08;;;2.03;;
70332;SDS011;57747;43.548;-5.704;2023-02-15T04:06:49;9.55;;;1.77;;
70332;SDS011;57747;43.548;-5.704;2023-02-15T04:09:14;4.90;;;2.17;;
70332;SDS011;57747;43.548;-5.704;2023-02-15T04:11:58;9.48;;;1.83;;
70332;SDS011;57747;43.548;-5.704;2023-02-15T04:14:23;4.00;;;1.50;;
70332;SDS011;57747;43.548;-5.704;2023-02-15T04:17:08;5.50;;;2.25;;
70332;SDS011;57747;43.548;-5.704;2023-02-15T04:19:33;8.15;;;2.28;;
70332;SDS011;57747;43.548;-5.704;2023-02-15T04:22:17;3.65;;;1.95;;
70332;SDS011;57747;43.548;-5.704;2023-02-15T04:25:02;13.98;;;2.20;;
70332;SDS011;57747;43.548;-5.704;2023-02-15T04:27:40;5.60;;;2.53;;
70332;SDS011;57747;43.548;-5.704;2023-02-15T04:30:06;4.63;;;1.88;;
70332;SDS011;57747;43.548;-5.704;2023-02-15T04:32:32;3.72;;;1.80;;
70332;SDS011;57747;43.548;-5.704;2023-02-15T04:34:58;6.72;;;1.85;;
70332;SDS011;57747;43.548;-5.704;2023-02-15T04:37:23;3.38;;;1.67;;
70332;SDS011;57747;43.548;-5.704;2023-02-15T04:39:49;5.45;;;1.45;;
70332;SDS011;57747;43.548;-5.704;2023-02-15T04:42:15;2.17;;;1.23;;
70332;SDS011;57747;43.548;-5.704;2023-02-15T04:44:40;3.20;;;1.58;;
70332;SDS011;57747;43.548;-5.704;2023-02-15T04:47:05;6.45;;;1.80;;
70332;SDS011;57747;43.548;-5.704;2023-02-15T04:49:31;2.42;;;1.70;;
70332;SDS011;57747;43.548;-5.704;2023-02-15T04:51:56;3.47;;;1.60;;
70332;SDS011;57747;43.548;-5.704;2023-02-15T04:54:22;4.30;;;1.77;;
70332;SDS011;57747;43.548;-5.704;2023-02-15T04:56:47;3.03;;;1.80;;
70332;SDS011;57747;43.548;-5.704;2023-02-15T04:59:12;3.40;;;1.60;;
70332;SDS011;57747;43.548;-5.704;2023-02-15T05:01:38;10.35;;;1.83;;
70332;SDS011;57747;43.548;-5.704;2023-02-15T05:04:03;11.57;;;1.90;;
70332;SDS011;57747;43.548;-5.704;2023-02-15T05:06:29;10.07;;;2.40;;
70332;SDS011;57747;43.548;-5.704;2023-02-15T05:08:55;2.58;;;1.15;;
70332;SDS011;57747;43.548;-5.704;2023-02-15T05:11:20;4.95;;;1.60;;
70332;SDS011;57747;43.548;-5.704;2023-02-15T05:13:45;8.60;;;2.05;;
70332;SDS011;57747;43.548;-5.704;2023-02-15T05:16:11;5.22;;;1.92;;
70332;SDS011;57747;43.548;-5.704;2023-02-15T05:18:36;3.55;;;1.95;;
70332;SDS011;57747;43.548;-5.704;2023-02-15T05:21:02;6.07;;;1.90;;
70332;SDS011;57747;43.548;-5.704;2023-02-15T05:23:27;6.63;;;2.30;;
70332;SDS011;57747;43.548;-5.704;2023-02-15T05:25:52;4.57;;;1.90;;
70332;SDS011;57747;43.548;-5.704;2023-02-15T05:28:37;12.40;;;2.17;;
70332;SDS011;57747;43.548;-5.704;2023-02-15T05:31:06;3.70;;;1.95;;
70332;SDS011;57747;43.548;-5.704;2023-02-15T05:33:32;4.07;;;1.63;;
70332;SDS011;57747;43.548;-5.704;2023-02-15T05:35:58;5.72;;;2.40;;
70332;SDS011;57747;43.548;-5.704;2023-02-15T05:38:23;5.20;;;1.90;;
70332;SDS011;57747;43.548;-5.704;2023-02-15T05:40:50;3.15;;;1.73;;
70332;SDS011;57747;43.548;-5.704;2023-02-15T05:43:18;3.15;;;1.90;;
70332;SDS011;57747;43.548;-5.704;2023-02-15T05:45:46;5.03;;;2.13;;
70332;SDS011;57747;43.548;-5.704;2023-02-15T05:48:12;8.93;;;1.83;;
70332;SDS011;57747;43.548;-5.704;2023-02-15T05:50:37;4.78;;;1.77;;
70332;SDS011;57747;43.548;-5.704;2023-02-15T05:53:03;6.25;;;1.65;;
70332;SDS011;57747;43.548;-5.704;2023-02-15T05:55:28;7.53;;;1.88;;
70332;SDS011;57747;43.548;-5.704;2023-02-15T05:57:53;7.30;;;2.20;;
70332;SDS011;57747;43.548;-5.704;2023-02-15T06:00:19;6.97;;;1.80;;
70332;SDS011;57747;43.548;-5.704;2023-02-15T06:02:44;5.65;;;2.17;;
70332;SDS011;57747;43.548;-5.704;2023-02-15T06:05:10;9.75;;;1.98;;
70332;SDS011;57747;43.548;-5.704;2023-02-15T06:07:35;5.70;;;2.45;;
70332;SDS011;57747;43.548;-5.704;2023-02-15T06:10:00;12.35;;;2.40;;
70332;SDS011;57747;43.548;-5.704;2023-02-15T06:12:26;6.72;;;2.80;;
70332;SDS011;57747;43.548;-5.704;2023-02-15T06:14:51;6.35;;;2.20;;
70332;SDS011;57747;43.548;-5.704;2023-02-15T06:17:17;10.88;;;2.35;;
70332;SDS011;57747;43.548;-5.704;2023-02-15T06:19:42;8.60;;;2.00;;
70332;SDS011;57747;43.548;-5.704;2023-02-15T06:22:08;6.60;;;2.10;;
70332;SDS011;57747;43.548;-5.704;2023-02-15T06:24:33;7.00;;;1.98;;
70332;SDS011;57747;43.548;-5.704;2023-02-15T06:26:59;2.97;;;1.83;;
70332;SDS011;57747;43.548;-5.704;2023-02-15T06:29:24;9.70;;;1.90;;
70332;SDS011;57747;43.548;-5.704;2023-02-15T06:31:49;15.13;;;1.83;;
70332;SDS011;57747;43.548;-5.704;2023-02-15T06:34:15;2.10;;;1.45;;
70332;SDS011;57747;43.548;-5.704;2023-02-15T06:36:40;11.15;;;2.25;;
70332;SDS011;57747;43.548;-5.704;2023-02-15T06:39:05;4.95;;;1.98;;
70332;SDS011;57747;43.548;-5.704;2023-02-15T06:41:31;6.13;;;2.00;;
70332;SDS011;57747;43.548;-5.704;2023-02-15T06:43:56;3.63;;;1.35;;
70332;SDS011;57747;43.548;-5.704;2023-02-15T06:46:22;5.22;;;1.80;;
70332;SDS011;57747;43.548;-5.704;2023-02-15T06:48:48;6.63;;;2.28;;
70332;SDS011;57747;43.548;-5.704;2023-02-15T06:51:13;4.45;;;1.88;;
70332;SDS011;57747;43.548;-5.704;2023-02-15T06:53:39;5.63;;;1.85;;
70332;SDS011;57747;43.548;-5.704;2023-02-15T06:56:07;3.65;;;1.67;;
70332;SDS011;57747;43.548;-5.704;2023-02-15T06:58:34;5.13;;;2.03;;
70332;SDS011;57747;43.548;-5.704;2023-02-15T07:01:00;5.50;;;2.38;;
70332;SDS011;57747;43.548;-5.704;2023-02-15T07:03:25;8.95;;;2.22;;
70332;SDS011;57747;43.548;-5.704;2023-02-15T07:06:00;9.55;;;2.30;;
70332;SDS011;57747;43.548;-5.704;2023-02-15T07:08:26;8.13;;;1.80;;
70332;SDS011;57747;43.548;-5.704;2023-02-15T07:10:52;12.27;;;2.30;;
70332;SDS011;57747;43.548;-5.704;2023-02-15T07:13:17;6.03;;;1.90;;
70332;SDS011;57747;43.548;-5.704;2023-02-15T07:15:43;3.50;;;1.77;;
70332;SDS011;57747;43.548;-5.704;2023-02-15T07:18:08;7.70;;;1.95;;
70332;SDS011;57747;43.548;-5.704;2023-02-15T07:20:36;5.28;;;1.80;;
70332;SDS011;57747;43.548;-5.704;2023-02-15T07:23:01;6.15;;;2.25;;
70332;SDS011;57747;43.548;-5.704;2023-02-15T07:25:27;9.60;;;2.55;;
70332;SDS011;57747;43.548;-5.704;2023-02-15T07:27:59;5.57;;;1.98;;
70332;SDS011;57747;43.548;-5.704;2023-02-15T07:30:28;8.13;;;2.50;;
70332;SDS011;57747;43.548;-5.704;2023-02-15T07:32:57;8.32;;;2.92;;
70332;SDS011;57747;43.548;-5.704;2023-02-15T07:35:47;2.95;;;1.67;;
70332;SDS011;57747;43.548;-5.704;2023-02-15T07:38:14;15.07;;;2.03;;
70332;SDS011;57747;43.548;-5.704;2023-02-15T07:40:39;13.35;;;2.58;;
70332;SDS011;57747;43.548;-5.704;2023-02-15T07:43:05;13.10;;;2.33;;
70332;SDS011;57747;43.548;-5.704;2023-02-15T07:45:30;12.82;;;3.08;;
70332;SDS011;57747;43.548;-5.704;2023-02-15T07:47:56;19.90;;;3.17;;
70332;SDS011;57747;43.548;-5.704;2023-02-15T07:50:22;18.38;;;2.88;;
70332;SDS011;57747;43.548;-5.704;2023-02-15T07:52:47;9.68;;;3.28;;
70332;SDS011;57747;43.548;-5.704;2023-02-15T07:55:12;17.75;;;2.42;;
70332;SDS011;57747;43.548;-5.704;2023-02-15T07:57:45;7.93;;;2.78;;
70332;SDS011;57747;43.548;-5.704;2023-02-15T08:00:11;8.02;;;2.90;;
70332;SDS011;57747;43.548;-5.704;2023-02-15T08:02:38;7.85;;;2.50;;
70332;SDS011;57747;43.548;-5.704;2023-02-15T08:05:06;4.68;;;2.05;;
70332;SDS011;57747;43.548;-5.704;2023-02-15T08:07:32;6.72;;;2.22;;
70332;SDS011;57747;43.548;-5.704;2023-02-15T08:09:57;13.50;;;2.75;;
70332;SDS011;57747;43.548;-5.704;2023-02-15T08:12:25;15.55;;;2.92;;
70332;SDS011;57747;43.548;-5.704;2023-02-15T08:14:51;17.80;;;3.47;;
70332;SDS011;57747;43.548;-5.704;2023-02-15T08:17:16;14.88;;;3.40;;
70332;SDS011;57747;43.548;-5.704;2023-02-15T08:19:41;20.63;;;3.30;;
70332;SDS011;57747;43.548;-5.704;2023-02-15T08:22:10;21.35;;;4.88;;
70332;SDS011;57747;43.548;-5.704;2023-02-15T08:24:36;24.88;;;3.42;;
70332;SDS011;57747;43.548;-5.704;2023-02-15T08:27:02;15.85;;;3.50;;
70332;SDS011;57747;43.548;-5.704;2023-02-15T08:29:28;23.10;;;3.53;;
70332;SDS011;57747;43.548;-5.704;2023-02-15T08:31:55;17.73;;;3.50;;
70332;SDS011;57747;43.548;-5.704;2023-02-15T08:34:23;13.82;;;3.47;;
70332;SDS011;57747;43.548;-5.704;2023-02-15T08:36:48;18.92;;;3.05;;
70332;SDS011;57747;43.548;-5.704;2023-02-15T08:39:14;14.98;;;3.47;;
70332;SDS011;57747;43.548;-5.704;2023-02-15T08:41:44;14.70;;;3.17;;
70332;SDS011;57747;43.548;-5.704;2023-02-15T08:44:10;6.72;;;3.17;;
70332;SDS011;57747;43.548;-5.704;2023-02-15T08:46:36;15.90;;;2.63;;
70332;SDS011;57747;43.548;-5.704;2023-02-15T08:49:02;6.90;;;2.83;;
70332;SDS011;57747;43.548;-5.704;2023-02-15T08:51:32;16.75;;;3.22;;
70332;SDS011;57747;43.548;-5.704;2023-02-15T08:53:58;6.00;;;2.42;;
70332;SDS011;57747;43.548;-5.704;2023-02-15T08:56:25;12.43;;;2.88;;
70332;SDS011;57747;43.548;-5.704;2023-02-15T08:58:51;6.07;;;2.15;;
70332;SDS011;57747;43.548;-5.704;2023-02-15T09:01:18;7.57;;;2.47;;
70332;SDS011;57747;43.548;-5.704;2023-02-15T09:03:45;5.28;;;2.33;;
70332;SDS011;57747;43.548;-5.704;2023-02-15T09:06:11;6.53;;;2.97;;
70332;SDS011;57747;43.548;-5.704;2023-02-15T09:08:37;6.65;;;2.53;;
70332;SDS011;57747;43.548;-5.704;2023-02-15T09:11:06;6.85;;;2.75;;
70332;SDS011;57747;43.548;-5.704;2023-02-15T09:13:31;8.13;;;2.97;;
70332;SDS011;57747;43.548;-5.704;2023-02-15T09:16:03;13.73;;;2.83;;
70332;SDS011;57747;43.548;-5.704;2023-02-15T09:18:30;16.40;;;2.80;;
70332;SDS011;57747;43.548;-5.704;2023-02-15T09:20:55;10.65;;;3.85;;
70332;SDS011;57747;43.548;-5.704;2023-02-15T09:23:21;9.40;;;4.00;;
70332;SDS011;57747;43.548;-5.704;2023-02-15T09:25:46;7.72;;;3.38;;
70332;SDS011;57747;43.548;-5.704;2023-02-15T09:28:11;4.90;;;2.25;;
70332;SDS011;57747;43.548;-5.704;2023-02-15T09:30:37;12.23;;;2.80;;
70332;SDS011;57747;43.548;-5.704;2023-02-15T09:33:02;12.35;;;3.20;;
70332;SDS011;57747;43.548;-5.704;2023-02-15T09:35:28;7.57;;;3.05;;
70332;SDS011;57747;43.548;-5.704;2023-02-15T09:37:53;8.63;;;3.72;;
70332;SDS011;57747;43.548;-5.704;2023-02-15T09:40:18;9.43;;;3.95;;
70332;SDS011;57747;43.548;-5.704;2023-02-15T10:09:23;25.83;;;4.55;;
70332;SDS011;57747;43.548;-5.704;2023-02-15T10:11:55;15.02;;;4.35;;
70332;SDS011;57747;43.548;-5.704;2023-02-15T10:17:14;20.73;;;3.20;;
70332;SDS011;57747;43.548;-5.704;2023-02-15T10:27:21;9.63;;;3.13;;
70332;SDS011;57747;43.548;-5.704;2023-02-15T10:29:54;10.65;;;3.05;;
70332;SDS011;57747;43.548;-5.704;2023-02-15T10:32:27;20.92;;;4.03;;
70332;SDS011;57747;43.548;-5.704;2023-02-15T10:35:01;10.70;;;3.80;;
70332;SDS011;57747;43.548;-5.704;2023-02-15T10:58:36;15.95;;;3.33;;
70332;SDS011;57747;43.548;-5.704;2023-02-15T11:01:16;14.25;;;4.28;;
70332;SDS011;57747;43.548;-5.704;2023-02-15T11:06:21;8.10;;;3.28;;
70332;SDS011;57747;43.548;-5.704;2023-02-15T11:09:33;15.20;;;3.28;;
70332;SDS011;57747;43.548;-5.704;2023-02-15T11:11:34;17.65;;;3.47;;
70332;SDS011;57747;43.548;-5.704;2023-02-15T11:14:02;17.83;;;3.45;;
70332;SDS011;57747;43.548;-5.704;2023-02-15T11:16:33;7.75;;;2.83;;
70332;SDS011;57747;43.548;-5.704;2023-02-15T11:21:43;13.45;;;3.50;;
70332;SDS011;57747;43.548;-5.704;2023-02-15T11:24:14;11.73;;;3.38;;
70332;SDS011;57747;43.548;-5.704;2023-02-15T11:26:48;7.22;;;2.30;;
70332;SDS011;57747;43.548;-5.704;2023-02-15T11:31:45;5.15;;;2.65;;
70332;SDS011;57747;43.548;-5.704;2023-02-15T11:34:31;12.07;;;3.03;;
70332;SDS011;57747;43.548;-5.704;2023-02-15T11:36:59;11.27;;;2.95;;
70332;SDS011;57747;43.548;-5.704;2023-02-15T11:39:25;14.60;;;3.03;;
70332;SDS011;57747;43.548;-5.704;2023-02-15T11:41:55;5.93;;;1.90;;
70332;SDS011;57747;43.548;-5.704;2023-02-15T11:44:26;9.60;;;2.55;;
70332;SDS011;57747;43.548;-5.704;2023-02-15T11:46:53;9.07;;;2.47;;
70332;SDS011;57747;43.548;-5.704;2023-02-15T11:49:31;4.85;;;1.90;;
70332;SDS011;57747;43.548;-5.704;2023-02-15T11:51:57;6.28;;;1.80;;
70332;SDS011;57747;43.548;-5.704;2023-02-15T11:54:27;5.05;;;2.42;;
70332;SDS011;57747;43.548;-5.704;2023-02-15T11:56:54;8.65;;;2.45;;
70332;SDS011;57747;43.548;-5.704;2023-02-15T11:59:32;12.05;;;2.03;;
70332;SDS011;57747;43.548;-5.704;2023-02-15T12:01:58;5.00;;;2.10;;
70332;SDS011;57747;43.548;-5.704;2023-02-15T12:04:24;7.80;;;1.95;;
70332;SDS011;57747;43.548;-5.704;2023-02-15T12:07:01;3.78;;;2.00;;
70332;SDS011;57747;43.548;-5.704;2023-02-15T12:09:48;7.50;;;2.17;;
70332;SDS011;57747;43.548;-5.704;2023-02-15T12:12:25;11.38;;;2.90;;
70332;SDS011;57747;43.548;-5.704;2023-02-15T12:15:01;7.15;;;2.53;;
70332;SDS011;57747;43.548;-5.704;2023-02-15T12:17:30;5.35;;;2.13;;
70332;SDS011;57747;43.548;-5.704;2023-02-15T12:19:57;3.00;;;1.70;;
70332;SDS011;57747;43.548;-5.704;2023-02-15T12:24:50;4.95;;;2.28;;
70332;SDS011;57747;43.548;-5.704;2023-02-15T12:27:18;7.47;;;1.70;;
70332;SDS011;57747;43.548;-5.704;2023-02-15T12:29:49;6.85;;;2.47;;
70332;SDS011;57747;43.548;-5.704;2023-02-15T12:32:19;7.25;;;1.92;;
70332;SDS011;57747;43.548;-5.704;2023-02-15T12:34:47;2.58;;;1.45;;
70332;SDS011;57747;43.548;-5.704;2023-02-15T12:37:17;13.15;;;2.10;;
70332;SDS011;57747;43.548;-5.704;2023-02-15T12:42:42;7.20;;;2.05;;
70332;SDS011;57747;43.548;-5.704;2023-02-15T12:50:37;6.47;;;1.60;;
70332;SDS011;57747;43.548;-5.704;2023-02-15T12:53:07;7.05;;;1.48;;
70332;SDS011;57747;43.548;-5.704;2023-02-15T12:55:33;5.22;;;1.55;;
70332;SDS011;57747;43.548;-5.704;2023-02-15T12:58:05;2.47;;;1.40;;
70332;SDS011;57747;43.548;-5.704;2023-02-15T13:00:34;2.88;;;1.25;;
70332;SDS011;57747;43.548;-5.704;2023-02-15T13:02:59;4.97;;;1.65;;
70332;SDS011;57747;43.548;-5.704;2023-02-15T13:05:35;8.15;;;1.67;;
70332;SDS011;57747;43.548;-5.704;2023-02-15T13:08:12;2.85;;;1.60;;
70332;SDS011;57747;43.548;-5.704;2023-02-15T13:10:41;5.25;;;2.53;;
70332;SDS011;57747;43.548;-5.704;2023-02-15T13:13:11;11.30;;;2.30;;
70332;SDS011;57747;43.548;-5.704;2023-02-15T13:15:37;6.40;;;2.30;;
70332;SDS011;57747;43.548;-5.704;2023-02-15T13:18:04;8.20;;;2.75;;
70332;SDS011;57747;43.548;-5.704;2023-02-15T13:20:31;6.43;;;2.60;;
70332;SDS011;57747;43.548;-5.704;2023-02-15T13:23:01;5.97;;;2.47;;
70332;SDS011;57747;43.548;-5.704;2023-02-15T13:25:35;10.25;;;2.50;;
70332;SDS011;57747;43.548;-5.704;2023-02-15T13:28:05;7.93;;;2.60;;
70332;SDS011;57747;43.548;-5.704;2023-02-15T13:30:35;6.30;;;1.98;;
70332;SDS011;57747;43.548;-5.704;2023-02-15T13:33:04;8.50;;;2.20;;
70332;SDS011;57747;43.548;-5.704;2023-02-15T13:35:56;4.82;;;1.85;;
70332;SDS011;57747;43.548;-5.704;2023-02-15T13:41:04;6.47;;;1.73;;
70332;SDS011;57747;43.548;-5.704;2023-02-15T13:51:32;5.40;;;1.77;;
70332;SDS011;57747;43.548;-5.704;2023-02-15T13:56:47;14.18;;;2.13;;
70332;SDS011;57747;43.548;-5.704;2023-02-15T13:59:53;4.97;;;2.03;;
70332;SDS011;57747;43.548;-5.704;2023-02-15T14:07:27;4.75;;;1.73;;
70332;SDS011;57747;43.548;-5.704;2023-02-15T14:12:43;5.95;;;2.08;;
70332;SDS011;57747;43.548;-5.704;2023-02-15T14:15:13;6.13;;;1.70;;
70332;SDS011;57747;43.548;-5.704;2023-02-15T14:18:00;11.15;;;1.98;;
70332;SDS011;57747;43.548;-5.704;2023-02-15T14:25:56;6.75;;;2.17;;
70332;SDS011;57747;43.548;-5.704;2023-02-15T14:28:28;7.18;;;2.67;;
70332;SDS011;57747;43.548;-5.704;2023-02-15T14:30:58;5.35;;;2.17;;
70332;SDS011;57747;43.548;-5.704;2023-02-15T14:35:58;8.38;;;1.30;;
70332;SDS011;57747;43.548;-5.704;2023-02-15T14:38:48;8.25;;;1.60;;
70332;SDS011;57747;43.548;-5.704;2023-02-15T14:46:29;5.60;;;1.63;;
70332;SDS011;57747;43.548;-5.704;2023-02-15T14:49:03;14.25;;;1.83;;
70332;SDS011;57747;43.548;-5.704;2023-02-15T14:57:31;4.72;;;1.38;;
70332;SDS011;57747;43.548;-5.704;2023-02-15T14:59:40;9.95;;;2.10;;
70332;SDS011;57747;43.548;-5.704;2023-02-15T15:04:40;2.03;;;1.20;;
70332;SDS011;57747;43.548;-5.704;2023-02-15T15:09:39;10.90;;;1.80;;
70332;SDS011;57747;43.548;-5.704;2023-02-15T15:14:43;10.05;;;1.77;;
70332;SDS011;57747;43.548;-5.704;2023-02-15T15:24:57;3.40;;;1.60;;
70332;SDS011;57747;43.548;-5.704;2023-02-15T15:27:43;8.10;;;1.85;;
70332;SDS011;57747;43.548;-5.704;2023-02-15T15:35:19;3.47;;;1.52;;
70332;SDS011;57747;43.548;-5.704;2023-02-15T15:37:51;4.72;;;1.88;;
70332;SDS011;57747;43.548;-5.704;2023-02-15T15:43:20;9.35;;;1.80;;
70332;SDS011;57747;43.548;-5.704;2023-02-15T15:48:30;3.40;;;1.45;;
70332;SDS011;57747;43.548;-5.704;2023-02-15T15:51:00;7.80;;;1.70;;
70332;SDS011;57747;43.548;-5.704;2023-02-15T15:53:27;2.70;;;1.60;;
70332;SDS011;57747;43.548;-5.704;2023-02-15T15:55:58;2.67;;;1.42;;
70332;SDS011;57747;43.548;-5.704;2023-02-15T15:58:28;6.20;;;1.77;;
70332;SDS011;57747;43.548;-5.704;2023-02-15T16:01:07;6.15;;;1.35;;
70332;SDS011;57747;43.548;-5.704;2023-02-15T16:03:49;3.45;;;1.73;;
70332;SDS011;57747;43.548;-5.704;2023-02-15T16:06:32;4.32;;;1.30;;
70332;SDS011;57747;43.548;-5.704;2023-02-15T16:09:09;3.87;;;1.53;;
70332;SDS011;57747;43.548;-5.704;2023-02-15T16:11:35;3.33;;;1.35;;
70332;SDS011;57747;43.548;-5.704;2023-02-15T16:14:08;8.07;;;2.05;;
70332;SDS011;57747;43.548;-5.704;2023-02-15T16:16:38;4.20;;;1.70;;
70332;SDS011;57747;43.548;-5.704;2023-02-15T16:19:14;4.07;;;1.33;;
70332;SDS011;57747;43.548;-5.704;2023-02-15T16:21:43;4.22;;;2.00;;
70332;SDS011;57747;43.548;-5.704;2023-02-15T16:24:33;4.53;;;1.70;;
70332;SDS011;57747;43.548;-5.704;2023-02-15T16:29:32;11.45;;;5.07;;
70332;SDS011;57747;43.548;-5.704;2023-02-15T16:32:01;13.63;;;3.97;;
70332;SDS011;57747;43.548;-5.704;2023-02-15T16:34:27;16.08;;;6.03;;
70332;SDS011;57747;43.548;-5.704;2023-02-15T16:39:52;6.00;;;2.53;;
70332;SDS011;57747;43.548;-5.704;2023-02-15T16:42:20;5.82;;;1.95;;
70332;SDS011;57747;43.548;-5.704;2023-02-15T16:44:48;7.10;;;2.45;;
70332;SDS011;57747;43.548;-5.704;2023-02-15T16:47:19;2.08;;;1.45;;
70332;SDS011;57747;43.548;-5.704;2023-02-15T16:49:47;2.58;;;1.70;;
70332;SDS011;57747;43.548;-5.704;2023-02-15T16:52:15;5.28;;;1.95;;
70332;SDS011;57747;43.548;-5.704;2023-02-15T16:54:43;6.25;;;1.88;;
70332;SDS011;57747;43.548;-5.704;2023-02-15T16:57:18;4.70;;;1.33;;
70332;SDS011;57747;43.548;-5.704;2023-02-15T16:59:46;7.97;;;1.63;;
70332;SDS011;57747;43.548;-5.704;2023-02-15T17:02:16;3.05;;;1.30;;
70332;SDS011;57747;43.548;-5.704;2023-02-15T17:09:52;7.72;;;1.80;;
70332;SDS011;57747;43.548;-5.704;2023-02-15T17:15:02;5.43;;;1.65;;
70332;SDS011;57747;43.548;-5.704;2023-02-15T17:17:27;2.97;;;1.50;;
70332;SDS011;57747;43.548;-5.704;2023-02-15T17:19:58;5.13;;;1.90;;
70332;SDS011;57747;43.548;-5.704;2023-02-15T17:22:25;4.13;;;1.80;;
70332;SDS011;57747;43.548;-5.704;2023-02-15T17:24:59;5.75;;;1.95;;
70332;SDS011;57747;43.548;-5.704;2023-02-15T17:27:25;12.60;;;2.05;;
70332;SDS011;57747;43.548;-5.704;2023-02-15T17:30:34;10.93;;;2.67;;
70332;SDS011;57747;43.548;-5.704;2023-02-15T17:32:52;7.10;;;1.83;;
70332;SDS011;57747;43.548;-5.704;2023-02-15T17:35:24;8.25;;;1.55;;
70332;SDS011;57747;43.548;-5.704;2023-02-15T17:40:36;3.20;;;1.60;;
70332;SDS011;57747;43.548;-5.704;2023-02-15T17:43:02;3.10;;;1.92;;
70332;SDS011;57747;43.548;-5.704;2023-02-15T17:45:49;4.20;;;1.55;;
70332;SDS011;57747;43.548;-5.704;2023-02-15T17:48:21;8.32;;;2.45;;
70332;SDS011;57747;43.548;-5.704;2023-02-15T17:50:49;9.82;;;3.38;;
70332;SDS011;57747;43.548;-5.704;2023-02-15T17:53:18;6.25;;;2.78;;
70332;SDS011;57747;43.548;-5.704;2023-02-15T17:55:44;10.85;;;4.38;;
70332;SDS011;57747;43.548;-5.704;2023-02-15T17:58:13;13.27;;;3.92;;
70332;SDS011;57747;43.548;-5.704;2023-02-15T18:00:39;11.57;;;4.60;;
70332;SDS011;57747;43.548;-5.704;2023-02-15T18:03:24;13.35;;;5.05;;